Arcata, CA (95518)

3:18 PM PDT on August 31, 2016 (GMT -0700)
APRSWXNET | | Change Station

Elev 5 ft 40.86 °N, 124.09 °W | Updated 20 minutes ago

Overcast
Overcast
64 °F
Feels Like 64 °F
N
5
Wind Variable Wind from North
Gusts 9.0 mph

Today
High -- | Low -- °F
--% Chance of Precip.
Yesterday
High -- | Low -- °F
Precip. -- in
Pressure 30.07 in
Visibility 10.0 miles
Clouds Overcast 300 ft
Dew Point 59 °F
Humidity 85%
Rainfall in
Snow Depth Not available.
6:42 AM 7:49 PM
Waning Crescent, 0% visible
METAR KACV 312153Z AUTO 32008KT 10SM OVC003 16/14 A3005 RMK AO2 SLP181 T01610139
Pressure 30.07 in
Visibility 10.0 miles
Clouds Overcast 300 ft
Dew Point 59 °F
Humidity 85%
Rainfall in
Snow Depth Not available.
6:42 AM 7:49 PM
Waning Crescent, 0% visible
METAR KACV 312153Z AUTO 32008KT 10SM OVC003 16/14 A3005 RMK AO2 SLP181 T01610139

10-Day Weather Forecast

Almanac

Astronomy

Aug. 31, 2016 Rise Set
Actual Time
Civil Twilight
Nautical Twilight
Astronomical Twilight
Moon
Length of Visible Light
Length of Day
Tomorrow will be .
, % of the Moon is Illuminated

Today's Extremes

State Highs State Lows

Community

WunderPhotos

Upload Photos

1,936,200 photos uploaded!

WunderBlog® & News

Nearby

Air Quality

  Air Quality AQ Index Pollutant
Not available.

Snow Depth

Station Depth Elevation

Earthquake Activity

City Distance Mag. Time & Date
Minimum magnitude displayed is 2.5.

Coastal Water Temperatures

Place Temperature

Stations

Nearby Weather Stations

Station Location Temp. Windchill Dew Point Humidity Wind Precip. Elev Updated Type
                   

Watches & Warnings

There are currently no watches in effect.